sensor_id;sensor_type;location;lat;lon;timestamp;temperature;humidity
7518;DHT22;3800;48.922;9.444;2023-10-31T00:01:49;11.70;99.90
7518;DHT22;3800;48.922;9.444;2023-10-31T00:04:17;11.60;99.90
7518;DHT22;3800;48.922;9.444;2023-10-31T00:06:45;11.70;99.90
7518;DHT22;3800;48.922;9.444;2023-10-31T00:09:14;11.70;99.90
7518;DHT22;3800;48.922;9.444;2023-10-31T00:11:43;11.60;99.90
7518;DHT22;3800;48.922;9.444;2023-10-31T00:14:11;11.60;99.90
7518;DHT22;3800;48.922;9.444;2023-10-31T00:16:39;11.70;99.90
7518;DHT22;3800;48.922;9.444;2023-10-31T00:19:08;11.60;99.90
7518;DHT22;3800;48.922;9.444;2023-10-31T00:21:37;11.60;99.90
7518;DHT22;3800;48.922;9.444;2023-10-31T00:24:05;11.60;99.90
7518;DHT22;3800;48.922;9.444;2023-10-31T00:26:33;11.60;99.90
7518;DHT22;3800;48.922;9.444;2023-10-31T00:29:02;11.60;99.90
7518;DHT22;3800;48.922;9.444;2023-10-31T00:31:30;11.60;99.90
7518;DHT22;3800;48.922;9.444;2023-10-31T00:33:58;11.60;99.90
7518;DHT22;3800;48.922;9.444;2023-10-31T00:36:27;11.60;99.90
7518;DHT22;3800;48.922;9.444;2023-10-31T00:38:55;11.50;99.90
7518;DHT22;3800;48.922;9.444;2023-10-31T00:41:24;11.50;99.90
7518;DHT22;3800;48.922;9.444;2023-10-31T00:43:52;11.50;99.90
7518;DHT22;3800;48.922;9.444;2023-10-31T00:46:21;11.50;99.90
7518;DHT22;3800;48.922;9.444;2023-10-31T00:48:49;11.50;99.90
7518;DHT22;3800;48.922;9.444;2023-10-31T00:51:18;11.50;99.90
7518;DHT22;3800;48.922;9.444;2023-10-31T00:53:47;11.50;99.90
7518;DHT22;3800;48.922;9.444;2023-10-31T00:56:15;11.50;99.90
7518;DHT22;3800;48.922;9.444;2023-10-31T00:58:43;11.50;99.90
7518;DHT22;3800;48.922;9.444;2023-10-31T01:01:12;11.50;99.90
7518;DHT22;3800;48.922;9.444;2023-10-31T01:03:41;11.40;99.90
7518;DHT22;3800;48.922;9.444;2023-10-31T01:06:09;11.40;99.90
7518;DHT22;3800;48.922;9.444;2023-10-31T01:08:37;11.40;99.90
7518;DHT22;3800;48.922;9.444;2023-10-31T01:11:05;11.30;99.90
7518;DHT22;3800;48.922;9.444;2023-10-31T01:13:33;11.30;99.90
7518;DHT22;3800;48.922;9.444;2023-10-31T01:16:02;11.20;99.90
7518;DHT22;3800;48.922;9.444;2023-10-31T01:18:31;11.20;99.90
7518;DHT22;3800;48.922;9.444;2023-10-31T01:20:59;11.10;99.90
7518;DHT22;3800;48.922;9.444;2023-10-31T01:23:28;11.00;99.90
7518;DHT22;3800;48.922;9.444;2023-10-31T01:25:56;10.90;99.90
7518;DHT22;3800;48.922;9.444;2023-10-31T01:28:24;10.80;99.90
7518;DHT22;3800;48.922;9.444;2023-10-31T01:30:53;10.80;99.90
7518;DHT22;3800;48.922;9.444;2023-10-31T01:33:21;10.80;99.90
7518;DHT22;3800;48.922;9.444;2023-10-31T01:35:49;10.70;99.90
7518;DHT22;3800;48.922;9.444;2023-10-31T01:38:17;10.70;99.90
7518;DHT22;3800;48.922;9.444;2023-10-31T01:40:48;10.70;99.90
7518;DHT22;3800;48.922;9.444;2023-10-31T01:45:56;10.60;99.90
7518;DHT22;3800;48.922;9.444;2023-10-31T01:48:24;10.50;99.90
7518;DHT22;3800;48.922;9.444;2023-10-31T01:50:52;10.60;99.90
7518;DHT22;3800;48.922;9.444;2023-10-31T01:53:21;10.50;99.90
7518;DHT22;3800;48.922;9.444;2023-10-31T01:55:50;10.50;99.90
7518;DHT22;3800;48.922;9.444;2023-10-31T01:58:19;10.50;99.90
7518;DHT22;3800;48.922;9.444;2023-10-31T02:00:47;10.40;99.90
7518;DHT22;3800;48.922;9.444;2023-10-31T02:03:15;10.40;99.90
7518;DHT22;3800;48.922;9.444;2023-10-31T02:05:43;10.40;99.90
7518;DHT22;3800;48.922;9.444;2023-10-31T02:08:13;10.40;99.90
7518;DHT22;3800;48.922;9.444;2023-10-31T02:10:41;10.30;99.90
7518;DHT22;3800;48.922;9.444;2023-10-31T02:13:12;10.30;99.90
7518;DHT22;3800;48.922;9.444;2023-10-31T02:15:40;10.30;99.90
7518;DHT22;3800;48.922;9.444;2023-10-31T02:18:09;10.30;99.90
7518;DHT22;3800;48.922;9.444;2023-10-31T02:20:37;10.30;99.90
7518;DHT22;3800;48.922;9.444;2023-10-31T02:23:05;10.30;99.90
7518;DHT22;3800;48.922;9.444;2023-10-31T02:25:33;10.30;99.90
7518;DHT22;3800;48.922;9.444;2023-10-31T02:28:02;10.30;99.90
7518;DHT22;3800;48.922;9.444;2023-10-31T02:30:30;10.30;99.90
7518;DHT22;3800;48.922;9.444;2023-10-31T02:32:58;10.30;99.90
7518;DHT22;3800;48.922;9.444;2023-10-31T02:35:27;10.40;99.90
7518;DHT22;3800;48.922;9.444;2023-10-31T02:37:55;10.30;99.90
7518;DHT22;3800;48.922;9.444;2023-10-31T02:40:24;10.30;99.90
7518;DHT22;3800;48.922;9.444;2023-10-31T02:42:52;10.20;99.90
7518;DHT22;3800;48.922;9.444;2023-10-31T02:45:20;10.30;99.90
7518;DHT22;3800;48.922;9.444;2023-10-31T02:47:49;10.20;99.90
7518;DHT22;3800;48.922;9.444;2023-10-31T02:50:18;10.20;99.90
7518;DHT22;3800;48.922;9.444;2023-10-31T02:52:47;10.20;99.90
7518;DHT22;3800;48.922;9.444;2023-10-31T02:55:15;10.20;99.90
7518;DHT22;3800;48.922;9.444;2023-10-31T02:57:43;10.20;99.90
7518;DHT22;3800;48.922;9.444;2023-10-31T03:00:12;10.20;99.90
7518;DHT22;3800;48.922;9.444;2023-10-31T03:02:40;10.20;99.90
7518;DHT22;3800;48.922;9.444;2023-10-31T03:05:09;10.10;99.90
7518;DHT22;3800;48.922;9.444;2023-10-31T03:07:37;10.10;99.90
7518;DHT22;3800;48.922;9.444;2023-10-31T03:10:06;10.10;99.90
7518;DHT22;3800;48.922;9.444;2023-10-31T03:12:34;10.10;99.90
7518;DHT22;3800;48.922;9.444;2023-10-31T03:15:03;10.00;99.90
7518;DHT22;3800;48.922;9.444;2023-10-31T03:17:32;10.00;99.90
7518;DHT22;3800;48.922;9.444;2023-10-31T03:20:00;10.00;99.90
7518;DHT22;3800;48.922;9.444;2023-10-31T03:22:29;10.00;99.90
7518;DHT22;3800;48.922;9.444;2023-10-31T03:24:58;10.00;99.90
7518;DHT22;3800;48.922;9.444;2023-10-31T03:27:27;10.00;99.90
7518;DHT22;3800;48.922;9.444;2023-10-31T03:29:55;10.00;99.90
7518;DHT22;3800;48.922;9.444;2023-10-31T03:32:23;9.90;99.90
7518;DHT22;3800;48.922;9.444;2023-10-31T03:34:53;9.90;99.90
7518;DHT22;3800;48.922;9.444;2023-10-31T03:37:21;9.90;99.90
7518;DHT22;3800;48.922;9.444;2023-10-31T03:39:51;9.90;99.90
7518;DHT22;3800;48.922;9.444;2023-10-31T03:42:19;9.90;99.90
7518;DHT22;3800;48.922;9.444;2023-10-31T03:44:48;9.90;99.90
7518;DHT22;3800;48.922;9.444;2023-10-31T03:47:16;9.90;99.90
7518;DHT22;3800;48.922;9.444;2023-10-31T03:49:44;9.80;99.90
7518;DHT22;3800;48.922;9.444;2023-10-31T03:52:13;9.90;99.90
7518;DHT22;3800;48.922;9.444;2023-10-31T03:54:41;9.90;99.90
7518;DHT22;3800;48.922;9.444;2023-10-31T03:57:10;9.80;99.90
7518;DHT22;3800;48.922;9.444;2023-10-31T03:59:38;9.80;99.90
7518;DHT22;3800;48.922;9.444;2023-10-31T04:02:06;9.80;99.90
7518;DHT22;3800;48.922;9.444;2023-10-31T04:04:35;9.80;99.90
7518;DHT22;3800;48.922;9.444;2023-10-31T04:07:03;9.80;99.90
7518;DHT22;3800;48.922;9.444;2023-10-31T04:09:31;9.80;99.90
7518;DHT22;3800;48.922;9.444;2023-10-31T04:12:00;9.80;99.90
7518;DHT22;3800;48.922;9.444;2023-10-31T04:14:29;9.80;99.90
7518;DHT22;3800;48.922;9.444;2023-10-31T04:16:58;9.80;99.90
7518;DHT22;3800;48.922;9.444;2023-10-31T04:19:26;9.80;99.90
7518;DHT22;3800;48.922;9.444;2023-10-31T04:21:54;9.80;99.90
7518;DHT22;3800;48.922;9.444;2023-10-31T04:24:23;9.80;99.90
7518;DHT22;3800;48.922;9.444;2023-10-31T04:26:51;9.80;99.90
7518;DHT22;3800;48.922;9.444;2023-10-31T04:29:19;9.80;99.90
7518;DHT22;3800;48.922;9.444;2023-10-31T04:31:47;9.90;99.90
7518;DHT22;3800;48.922;9.444;2023-10-31T04:34:16;9.90;99.90
7518;DHT22;3800;48.922;9.444;2023-10-31T04:36:44;9.90;99.90
7518;DHT22;3800;48.922;9.444;2023-10-31T04:39:13;9.90;99.90
7518;DHT22;3800;48.922;9.444;2023-10-31T04:41:42;9.90;99.90
7518;DHT22;3800;48.922;9.444;2023-10-31T04:44:11;9.90;99.90
7518;DHT22;3800;48.922;9.444;2023-10-31T04:46:39;10.00;99.90
7518;DHT22;3800;48.922;9.444;2023-10-31T04:49:07;10.00;99.90
7518;DHT22;3800;48.922;9.444;2023-10-31T04:51:36;10.00;99.90
7518;DHT22;3800;48.922;9.444;2023-10-31T04:54:04;10.00;99.90
7518;DHT22;3800;48.922;9.444;2023-10-31T04:56:33;10.00;99.90
7518;DHT22;3800;48.922;9.444;2023-10-31T04:59:01;10.00;99.90
7518;DHT22;3800;48.922;9.444;2023-10-31T05:01:30;10.00;99.90
7518;DHT22;3800;48.922;9.444;2023-10-31T05:03:58;10.00;99.90
7518;DHT22;3800;48.922;9.444;2023-10-31T05:06:28;10.00;99.90
7518;DHT22;3800;48.922;9.444;2023-10-31T05:08:56;10.00;99.90
7518;DHT22;3800;48.922;9.444;2023-10-31T05:11:24;10.00;99.90
7518;DHT22;3800;48.922;9.444;2023-10-31T05:13:54;10.10;99.90
7518;DHT22;3800;48.922;9.444;2023-10-31T05:16:22;10.10;99.90
7518;DHT22;3800;48.922;9.444;2023-10-31T05:18:52;10.10;99.90
7518;DHT22;3800;48.922;9.444;2023-10-31T05:21:20;10.00;99.90
7518;DHT22;3800;48.922;9.444;2023-10-31T05:23:49;10.10;99.90
7518;DHT22;3800;48.922;9.444;2023-10-31T05:26:17;10.00;99.90
7518;DHT22;3800;48.922;9.444;2023-10-31T05:28:45;10.00;99.90
7518;DHT22;3800;48.922;9.444;2023-10-31T05:31:15;10.00;99.90
7518;DHT22;3800;48.922;9.444;2023-10-31T05:33:44;10.00;99.90
7518;DHT22;3800;48.922;9.444;2023-10-31T05:36:23;10.00;99.90
7518;DHT22;3800;48.922;9.444;2023-10-31T05:38:51;10.00;99.90
7518;DHT22;3800;48.922;9.444;2023-10-31T05:41:20;10.00;99.90
7518;DHT22;3800;48.922;9.444;2023-10-31T05:43:48;9.90;99.90
7518;DHT22;3800;48.922;9.444;2023-10-31T05:46:17;9.90;99.90
7518;DHT22;3800;48.922;9.444;2023-10-31T05:48:48;9.90;99.90
7518;DHT22;3800;48.922;9.444;2023-10-31T05:51:18;9.90;99.90
7518;DHT22;3800;48.922;9.444;2023-10-31T05:53:46;9.80;99.90
7518;DHT22;3800;48.922;9.444;2023-10-31T05:56:14;9.80;99.90
7518;DHT22;3800;48.922;9.444;2023-10-31T05:58:42;9.80;99.90
7518;DHT22;3800;48.922;9.444;2023-10-31T06:01:10;9.80;99.90
7518;DHT22;3800;48.922;9.444;2023-10-31T06:03:42;9.70;99.90
7518;DHT22;3800;48.922;9.444;2023-10-31T06:06:11;9.70;99.90
7518;DHT22;3800;48.922;9.444;2023-10-31T06:08:39;9.70;99.90
7518;DHT22;3800;48.922;9.444;2023-10-31T06:11:09;9.60;99.90
7518;DHT22;3800;48.922;9.444;2023-10-31T06:13:37;9.60;99.90
7518;DHT22;3800;48.922;9.444;2023-10-31T06:16:07;9.60;99.90
7518;DHT22;3800;48.922;9.444;2023-10-31T06:18:35;9.50;99.90
7518;DHT22;3800;48.922;9.444;2023-10-31T06:21:03;9.50;99.90
7518;DHT22;3800;48.922;9.444;2023-10-31T06:23:33;9.50;99.90
7518;DHT22;3800;48.922;9.444;2023-10-31T06:26:01;9.50;99.90
7518;DHT22;3800;48.922;9.444;2023-10-31T06:28:30;9.60;99.90
7518;DHT22;3800;48.922;9.444;2023-10-31T06:30:58;9.60;99.90
7518;DHT22;3800;48.922;9.444;2023-10-31T06:33:26;9.60;99.90
7518;DHT22;3800;48.922;9.444;2023-10-31T06:35:54;9.60;99.90
7518;DHT22;3800;48.922;9.444;2023-10-31T06:38:23;9.60;99.90
7518;DHT22;3800;48.922;9.444;2023-10-31T06:40:52;9.60;99.90
7518;DHT22;3800;48.922;9.444;2023-10-31T06:43:22;9.60;99.90
7518;DHT22;3800;48.922;9.444;2023-10-31T06:45:50;9.60;99.90
7518;DHT22;3800;48.922;9.444;2023-10-31T06:48:18;9.60;99.90
7518;DHT22;3800;48.922;9.444;2023-10-31T06:50:48;9.60;99.90
7518;DHT22;3800;48.922;9.444;2023-10-31T06:53:16;9.70;99.90
7518;DHT22;3800;48.922;9.444;2023-10-31T06:55:44;9.70;99.90
7518;DHT22;3800;48.922;9.444;2023-10-31T06:58:12;9.70;99.90
7518;DHT22;3800;48.922;9.444;2023-10-31T07:00:41;9.70;99.90
7518;DHT22;3800;48.922;9.444;2023-10-31T07:03:10;9.70;99.90
7518;DHT22;3800;48.922;9.444;2023-10-31T07:05:38;9.70;99.90
7518;DHT22;3800;48.922;9.444;2023-10-31T07:08:06;9.70;99.90
7518;DHT22;3800;48.922;9.444;2023-10-31T07:10:35;9.80;99.90
7518;DHT22;3800;48.922;9.444;2023-10-31T07:13:05;9.80;99.90
7518;DHT22;3800;48.922;9.444;2023-10-31T07:15:34;9.90;99.90
7518;DHT22;3800;48.922;9.444;2023-10-31T07:18:03;9.90;99.90
7518;DHT22;3800;48.922;9.444;2023-10-31T07:20:31;9.90;99.90
7518;DHT22;3800;48.922;9.444;2023-10-31T07:22:59;10.00;99.90
7518;DHT22;3800;48.922;9.444;2023-10-31T07:25:29;10.00;99.90
7518;DHT22;3800;48.922;9.444;2023-10-31T07:27:57;10.00;99.90
7518;DHT22;3800;48.922;9.444;2023-10-31T07:30:26;10.00;99.90
7518;DHT22;3800;48.922;9.444;2023-10-31T07:32:54;10.00;99.90
7518;DHT22;3800;48.922;9.444;2023-10-31T07:35:22;10.00;99.90
7518;DHT22;3800;48.922;9.444;2023-10-31T07:37:51;10.00;99.90
7518;DHT22;3800;48.922;9.444;2023-10-31T07:40:20;10.00;99.90
7518;DHT22;3800;48.922;9.444;2023-10-31T07:42:49;10.00;99.90
7518;DHT22;3800;48.922;9.444;2023-10-31T07:45:18;10.00;99.90
7518;DHT22;3800;48.922;9.444;2023-10-31T07:47:46;10.00;99.90
7518;DHT22;3800;48.922;9.444;2023-10-31T07:50:15;10.00;99.90
7518;DHT22;3800;48.922;9.444;2023-10-31T07:52:44;10.00;99.90
7518;DHT22;3800;48.922;9.444;2023-10-31T07:55:12;10.10;99.90
7518;DHT22;3800;48.922;9.444;2023-10-31T07:57:41;10.10;99.90
7518;DHT22;3800;48.922;9.444;2023-10-31T08:00:10;10.10;99.90
7518;DHT22;3800;48.922;9.444;2023-10-31T08:02:39;10.10;99.90
7518;DHT22;3800;48.922;9.444;2023-10-31T08:05:09;10.20;99.90
7518;DHT22;3800;48.922;9.444;2023-10-31T08:07:38;10.20;99.90
7518;DHT22;3800;48.922;9.444;2023-10-31T08:10:07;10.20;99.90
7518;DHT22;3800;48.922;9.444;2023-10-31T08:12:36;10.20;99.90
7518;DHT22;3800;48.922;9.444;2023-10-31T08:15:06;10.20;99.90
7518;DHT22;3800;48.922;9.444;2023-10-31T08:17:35;10.10;99.90
7518;DHT22;3800;48.922;9.444;2023-10-31T08:20:06;10.20;99.90
7518;DHT22;3800;48.922;9.444;2023-10-31T08:22:35;10.20;99.90
7518;DHT22;3800;48.922;9.444;2023-10-31T08:25:04;10.20;99.90
7518;DHT22;3800;48.922;9.444;2023-10-31T08:27:34;10.20;99.90
7518;DHT22;3800;48.922;9.444;2023-10-31T08:30:02;10.20;99.90
7518;DHT22;3800;48.922;9.444;2023-10-31T08:32:30;10.30;99.90
7518;DHT22;3800;48.922;9.444;2023-10-31T08:34:58;10.40;99.90
7518;DHT22;3800;48.922;9.444;2023-10-31T08:37:28;10.40;99.90
7518;DHT22;3800;48.922;9.444;2023-10-31T08:39:56;10.50;99.90
7518;DHT22;3800;48.922;9.444;2023-10-31T08:42:24;10.60;99.90
7518;DHT22;3800;48.922;9.444;2023-10-31T08:44:52;10.60;99.90
7518;DHT22;3800;48.922;9.444;2023-10-31T08:47:22;10.70;99.90
7518;DHT22;3800;48.922;9.444;2023-10-31T08:49:51;10.80;99.90
7518;DHT22;3800;48.922;9.444;2023-10-31T08:52:19;10.80;99.90
7518;DHT22;3800;48.922;9.444;2023-10-31T08:54:48;10.90;99.90
7518;DHT22;3800;48.922;9.444;2023-10-31T08:57:16;11.00;99.90
7518;DHT22;3800;48.922;9.444;2023-10-31T08:59:45;11.10;99.90
7518;DHT22;3800;48.922;9.444;2023-10-31T09:02:13;11.10;99.90
7518;DHT22;3800;48.922;9.444;2023-10-31T09:04:42;11.10;99.90
7518;DHT22;3800;48.922;9.444;2023-10-31T09:07:10;11.20;99.90
7518;DHT22;3800;48.922;9.444;2023-10-31T09:09:39;11.20;99.90
7518;DHT22;3800;48.922;9.444;2023-10-31T09:12:08;11.20;99.90
7518;DHT22;3800;48.922;9.444;2023-10-31T09:14:36;11.20;99.90
7518;DHT22;3800;48.922;9.444;2023-10-31T09:17:05;11.20;99.90
7518;DHT22;3800;48.922;9.444;2023-10-31T09:19:35;11.30;99.90
7518;DHT22;3800;48.922;9.444;2023-10-31T09:22:04;11.30;99.90
7518;DHT22;3800;48.922;9.444;2023-10-31T09:24:33;11.30;99.90
7518;DHT22;3800;48.922;9.444;2023-10-31T09:27:01;11.30;99.90
7518;DHT22;3800;48.922;9.444;2023-10-31T09:29:29;11.30;99.90
7518;DHT22;3800;48.922;9.444;2023-10-31T09:31:57;11.40;99.90
7518;DHT22;3800;48.922;9.444;2023-10-31T09:34:26;11.40;99.90
7518;DHT22;3800;48.922;9.444;2023-10-31T09:36:54;11.50;99.90
7518;DHT22;3800;48.922;9.444;2023-10-31T09:39:22;11.50;99.90
7518;DHT22;3800;48.922;9.444;2023-10-31T09:41:52;11.50;99.90
7518;DHT22;3800;48.922;9.444;2023-10-31T09:44:20;11.50;99.90
7518;DHT22;3800;48.922;9.444;2023-10-31T09:46:48;11.50;99.90
7518;DHT22;3800;48.922;9.444;2023-10-31T09:49:16;11.50;99.90
7518;DHT22;3800;48.922;9.444;2023-10-31T09:51:46;11.60;99.90
7518;DHT22;3800;48.922;9.444;2023-10-31T09:54:15;11.60;99.90
7518;DHT22;3800;48.922;9.444;2023-10-31T09:56:43;11.70;99.90
7518;DHT22;3800;48.922;9.444;2023-10-31T09:59:13;11.70;99.90
7518;DHT22;3800;48.922;9.444;2023-10-31T10:01:40;11.60;99.90
7518;DHT22;3800;48.922;9.444;2023-10-31T10:04:10;11.60;99.90
7518;DHT22;3800;48.922;9.444;2023-10-31T10:06:58;11.60;99.90
7518;DHT22;3800;48.922;9.444;2023-10-31T10:09:26;11.70;99.90
7518;DHT22;3800;48.922;9.444;2023-10-31T10:11:55;11.80;99.90
7518;DHT22;3800;48.922;9.444;2023-10-31T10:14:24;11.80;99.90
7518;DHT22;3800;48.922;9.444;2023-10-31T10:16:52;11.80;99.90
7518;DHT22;3800;48.922;9.444;2023-10-31T10:19:21;11.90;99.90
7518;DHT22;3800;48.922;9.444;2023-10-31T10:21:53;11.90;99.90
7518;DHT22;3800;48.922;9.444;2023-10-31T10:24:21;11.90;99.90
7518;DHT22;3800;48.922;9.444;2023-10-31T10:26:49;11.80;99.90
7518;DHT22;3800;48.922;9.444;2023-10-31T10:29:18;11.80;99.90
7518;DHT22;3800;48.922;9.444;2023-10-31T10:31:47;11.80;99.90
7518;DHT22;3800;48.922;9.444;2023-10-31T10:34:15;11.80;99.90
7518;DHT22;3800;48.922;9.444;2023-10-31T10:36:48;11.80;99.90
7518;DHT22;3800;48.922;9.444;2023-10-31T10:39:21;11.80;99.90
7518;DHT22;3800;48.922;9.444;2023-10-31T10:41:59;11.80;99.90
7518;DHT22;3800;48.922;9.444;2023-10-31T10:44:32;11.80;99.90
7518;DHT22;3800;48.922;9.444;2023-10-31T10:47:03;11.80;99.90
7518;DHT22;3800;48.922;9.444;2023-10-31T10:49:33;11.90;99.90
7518;DHT22;3800;48.922;9.444;2023-10-31T10:52:06;11.90;99.90
7518;DHT22;3800;48.922;9.444;2023-10-31T10:54:49;12.00;99.90
7518;DHT22;3800;48.922;9.444;2023-10-31T10:57:21;12.00;99.90
7518;DHT22;3800;48.922;9.444;2023-10-31T10:59:48;12.00;99.90
7518;DHT22;3800;48.922;9.444;2023-10-31T11:02:17;12.00;99.90
7518;DHT22;3800;48.922;9.444;2023-10-31T11:04:46;12.00;99.90
7518;DHT22;3800;48.922;9.444;2023-10-31T11:07:15;12.10;99.90
7518;DHT22;3800;48.922;9.444;2023-10-31T11:09:42;12.10;99.90
7518;DHT22;3800;48.922;9.444;2023-10-31T11:12:11;12.10;99.90
7518;DHT22;3800;48.922;9.444;2023-10-31T11:14:40;12.20;99.90
7518;DHT22;3800;48.922;9.444;2023-10-31T11:17:11;12.20;99.90
7518;DHT22;3800;48.922;9.444;2023-10-31T11:19:39;12.20;99.90
7518;DHT22;3800;48.922;9.444;2023-10-31T11:22:11;12.10;99.90
7518;DHT22;3800;48.922;9.444;2023-10-31T11:24:40;12.10;99.90
7518;DHT22;3800;48.922;9.444;2023-10-31T11:27:08;12.10;99.90
7518;DHT22;3800;48.922;9.444;2023-10-31T11:29:36;12.10;99.90
7518;DHT22;3800;48.922;9.444;2023-10-31T11:32:10;12.20;99.90
7518;DHT22;3800;48.922;9.444;2023-10-31T11:34:38;12.20;99.90
7518;DHT22;3800;48.922;9.444;2023-10-31T11:37:23;12.20;99.90
7518;DHT22;3800;48.922;9.444;2023-10-31T11:42:37;12.20;99.90
7518;DHT22;3800;48.922;9.444;2023-10-31T11:45:08;12.20;99.90
7518;DHT22;3800;48.922;9.444;2023-10-31T11:47:46;12.20;99.90
7518;DHT22;3800;48.922;9.444;2023-10-31T11:50:15;12.20;99.90
7518;DHT22;3800;48.922;9.444;2023-10-31T11:52:43;12.20;99.90
7518;DHT22;3800;48.922;9.444;2023-10-31T11:55:12;12.30;99.90
7518;DHT22;3800;48.922;9.444;2023-10-31T11:57:43;12.30;99.90
7518;DHT22;3800;48.922;9.444;2023-10-31T12:00:19;12.30;99.90
7518;DHT22;3800;48.922;9.444;2023-10-31T12:02:41;12.40;99.90
7518;DHT22;3800;48.922;9.444;2023-10-31T12:05:10;12.40;99.90
7518;DHT22;3800;48.922;9.444;2023-10-31T12:07:44;12.40;99.90
7518;DHT22;3800;48.922;9.444;2023-10-31T12:10:12;12.40;99.90
7518;DHT22;3800;48.922;9.444;2023-10-31T12:12:40;12.40;99.90
7518;DHT22;3800;48.922;9.444;2023-10-31T12:15:10;12.30;99.90
7518;DHT22;3800;48.922;9.444;2023-10-31T12:17:39;12.40;99.90
7518;DHT22;3800;48.922;9.444;2023-10-31T12:20:08;12.40;99.90
7518;DHT22;3800;48.922;9.444;2023-10-31T12:22:37;12.40;99.90
7518;DHT22;3800;48.922;9.444;2023-10-31T12:25:07;12.40;99.90
7518;DHT22;3800;48.922;9.444;2023-10-31T12:27:45;12.40;99.90
7518;DHT22;3800;48.922;9.444;2023-10-31T12:30:17;12.50;99.90
7518;DHT22;3800;48.922;9.444;2023-10-31T12:32:44;12.50;99.90
7518;DHT22;3800;48.922;9.444;2023-10-31T12:35:15;12.50;99.90
7518;DHT22;3800;48.922;9.444;2023-10-31T12:37:44;12.50;99.90
7518;DHT22;3800;48.922;9.444;2023-10-31T12:40:12;12.50;99.90
7518;DHT22;3800;48.922;9.444;2023-10-31T12:42:42;12.50;99.90
7518;DHT22;3800;48.922;9.444;2023-10-31T12:45:11;12.50;99.90
7518;DHT22;3800;48.922;9.444;2023-10-31T12:47:39;12.50;99.90
7518;DHT22;3800;48.922;9.444;2023-10-31T12:50:13;12.60;99.90
7518;DHT22;3800;48.922;9.444;2023-10-31T12:52:47;12.60;99.90
7518;DHT22;3800;48.922;9.444;2023-10-31T12:55:18;12.60;99.90
7518;DHT22;3800;48.922;9.444;2023-10-31T12:57:46;12.50;99.90
7518;DHT22;3800;48.922;9.444;2023-10-31T13:00:15;12.50;99.90
7518;DHT22;3800;48.922;9.444;2023-10-31T13:02:43;12.50;99.90
7518;DHT22;3800;48.922;9.444;2023-10-31T13:05:12;12.40;99.90
7518;DHT22;3800;48.922;9.444;2023-10-31T13:07:41;12.40;99.90
7518;DHT22;3800;48.922;9.444;2023-10-31T13:10:16;12.50;99.90
7518;DHT22;3800;48.922;9.444;2023-10-31T13:12:45;12.40;99.90
7518;DHT22;3800;48.922;9.444;2023-10-31T13:15:15;12.40;99.90
7518;DHT22;3800;48.922;9.444;2023-10-31T13:17:43;12.30;99.90
7518;DHT22;3800;48.922;9.444;2023-10-31T13:20:12;12.20;99.90
7518;DHT22;3800;48.922;9.444;2023-10-31T13:22:41;11.80;99.90
7518;DHT22;3800;48.922;9.444;2023-10-31T13:25:10;11.90;99.90
7518;DHT22;3800;48.922;9.444;2023-10-31T13:27:40;11.60;99.90
7518;DHT22;3800;48.922;9.444;2023-10-31T13:30:09;11.60;99.90
7518;DHT22;3800;48.922;9.444;2023-10-31T13:32:40;11.60;99.90
7518;DHT22;3800;48.922;9.444;2023-10-31T13:35:08;11.60;99.90
7518;DHT22;3800;48.922;9.444;2023-10-31T13:37:36;11.50;99.90
7518;DHT22;3800;48.922;9.444;2023-10-31T13:40:06;11.50;99.90
7518;DHT22;3800;48.922;9.444;2023-10-31T13:42:36;11.50;99.90
7518;DHT22;3800;48.922;9.444;2023-10-31T13:45:05;11.50;99.90
7518;DHT22;3800;48.922;9.444;2023-10-31T13:47:34;11.60;99.90
7518;DHT22;3800;48.922;9.444;2023-10-31T13:50:02;11.50;99.90
7518;DHT22;3800;48.922;9.444;2023-10-31T13:52:31;11.50;99.90
7518;DHT22;3800;48.922;9.444;2023-10-31T13:55:00;11.50;99.90
7518;DHT22;3800;48.922;9.444;2023-10-31T13:57:29;11.50;99.90
7518;DHT22;3800;48.922;9.444;2023-10-31T13:59:57;11.50;99.90
7518;DHT22;3800;48.922;9.444;2023-10-31T14:02:25;11.50;99.90
7518;DHT22;3800;48.922;9.444;2023-10-31T14:04:53;11.50;99.90
7518;DHT22;3800;48.922;9.444;2023-10-31T14:07:23;11.50;99.90
7518;DHT22;3800;48.922;9.444;2023-10-31T14:09:51;11.60;99.90
7518;DHT22;3800;48.922;9.444;2023-10-31T14:12:19;11.60;99.90
7518;DHT22;3800;48.922;9.444;2023-10-31T14:14:48;11.60;99.90
7518;DHT22;3800;48.922;9.444;2023-10-31T14:17:16;11.60;99.90
7518;DHT22;3800;48.922;9.444;2023-10-31T14:19:45;11.70;99.90
7518;DHT22;3800;48.922;9.444;2023-10-31T14:22:13;11.70;99.90
7518;DHT22;3800;48.922;9.444;2023-10-31T14:24:42;11.70;99.90
7518;DHT22;3800;48.922;9.444;2023-10-31T14:27:10;11.70;99.90
7518;DHT22;3800;48.922;9.444;2023-10-31T14:29:38;11.70;99.90
7518;DHT22;3800;48.922;9.444;2023-10-31T14:32:08;11.80;99.90
7518;DHT22;3800;48.922;9.444;2023-10-31T14:34:38;11.70;99.90
7518;DHT22;3800;48.922;9.444;2023-10-31T14:37:07;11.70;99.90
7518;DHT22;3800;48.922;9.444;2023-10-31T14:39:35;11.70;99.90
7518;DHT22;3800;48.922;9.444;2023-10-31T14:42:03;11.80;99.90
7518;DHT22;3800;48.922;9.444;2023-10-31T14:44:32;11.80;99.90
7518;DHT22;3800;48.922;9.444;2023-10-31T14:47:00;11.80;99.90
7518;DHT22;3800;48.922;9.444;2023-10-31T14:49:28;11.80;99.90
7518;DHT22;3800;48.922;9.444;2023-10-31T14:51:57;11.90;99.90
7518;DHT22;3800;48.922;9.444;2023-10-31T14:54:25;11.90;99.90
7518;DHT22;3800;48.922;9.444;2023-10-31T14:56:53;11.90;99.90
7518;DHT22;3800;48.922;9.444;2023-10-31T14:59:21;11.80;99.90
7518;DHT22;3800;48.922;9.444;2023-10-31T15:01:50;11.80;99.90
7518;DHT22;3800;48.922;9.444;2023-10-31T15:04:19;11.80;99.90
7518;DHT22;3800;48.922;9.444;2023-10-31T15:06:47;11.80;99.90
7518;DHT22;3800;48.922;9.444;2023-10-31T15:09:15;11.80;99.90
7518;DHT22;3800;48.922;9.444;2023-10-31T15:11:45;11.80;99.90
7518;DHT22;3800;48.922;9.444;2023-10-31T15:14:13;11.80;99.90
7518;DHT22;3800;48.922;9.444;2023-10-31T15:16:42;11.80;99.90
7518;DHT22;3800;48.922;9.444;2023-10-31T15:19:11;11.70;99.90
7518;DHT22;3800;48.922;9.444;2023-10-31T15:21:39;11.70;99.90
7518;DHT22;3800;48.922;9.444;2023-10-31T15:24:08;11.70;99.90
7518;DHT22;3800;48.922;9.444;2023-10-31T15:26:36;11.70;99.90
7518;DHT22;3800;48.922;9.444;2023-10-31T15:29:05;11.70;99.90
7518;DHT22;3800;48.922;9.444;2023-10-31T15:31:34;11.70;99.90
7518;DHT22;3800;48.922;9.444;2023-10-31T15:34:02;11.70;99.90
7518;DHT22;3800;48.922;9.444;2023-10-31T15:36:30;11.70;99.90
7518;DHT22;3800;48.922;9.444;2023-10-31T15:38:58;11.70;99.90
7518;DHT22;3800;48.922;9.444;2023-10-31T15:41:27;11.70;99.90
7518;DHT22;3800;48.922;9.444;2023-10-31T15:43:55;11.70;99.90
7518;DHT22;3800;48.922;9.444;2023-10-31T15:46:24;11.70;99.90
7518;DHT22;3800;48.922;9.444;2023-10-31T15:48:53;11.70;99.90
7518;DHT22;3800;48.922;9.444;2023-10-31T15:51:22;11.70;99.90
7518;DHT22;3800;48.922;9.444;2023-10-31T15:53:50;11.60;99.90
7518;DHT22;3800;48.922;9.444;2023-10-31T15:56:19;11.50;99.90
7518;DHT22;3800;48.922;9.444;2023-10-31T15:58:47;11.50;99.90
7518;DHT22;3800;48.922;9.444;2023-10-31T16:01:16;11.50;99.90
7518;DHT22;3800;48.922;9.444;2023-10-31T16:03:45;11.40;99.90
7518;DHT22;3800;48.922;9.444;2023-10-31T16:06:13;11.40;99.90
7518;DHT22;3800;48.922;9.444;2023-10-31T16:08:42;11.40;99.90
7518;DHT22;3800;48.922;9.444;2023-10-31T16:11:11;11.40;99.90
7518;DHT22;3800;48.922;9.444;2023-10-31T16:13:39;11.40;99.90
7518;DHT22;3800;48.922;9.444;2023-10-31T16:16:08;11.40;99.90
7518;DHT22;3800;48.922;9.444;2023-10-31T16:18:36;11.30;99.90
7518;DHT22;3800;48.922;9.444;2023-10-31T16:21:06;11.30;99.90